createdAt,value
2023-02-06T00:03:38.513Z,56.19
2023-02-06T00:08:41.398Z,56.42
2023-02-06T00:13:45.519Z,56.42
2023-02-06T00:18:50.404Z,56.30
2023-02-06T00:23:55.523Z,56.37
2023-02-06T00:28:58.355Z,56.56
2023-02-06T00:34:03.781Z,56.39
2023-02-06T00:39:06.669Z,56.43
2023-02-06T00:44:09.468Z,56.41
2023-02-06T00:49:13.893Z,56.55
2023-02-06T00:54:16.649Z,56.46
2023-02-06T00:59:19.390Z,56.55
2023-02-06T01:04:23.500Z,56.74
2023-02-06T01:09:26.253Z,56.71
2023-02-06T01:14:29.213Z,56.53
2023-02-06T01:19:33.597Z,56.61
2023-02-06T01:24:37.092Z,56.64
2023-02-06T01:29:39.861Z,56.74
2023-02-06T01:34:44.052Z,56.66
2023-02-06T01:39:46.840Z,56.83
2023-02-06T01:44:49.728Z,56.61
2023-02-06T01:49:53.934Z,56.80
2023-02-06T01:55:00.484Z,56.76
2023-02-06T02:00:08.207Z,56.67
2023-02-06T02:05:19.350Z,56.76
2023-02-06T02:10:22.157Z,56.60
2023-02-06T02:15:31.770Z,56.80
2023-02-06T02:20:55.275Z,56.60
2023-02-06T02:26:25.613Z,56.62
2023-02-06T02:32:00.721Z,56.78
2023-02-06T02:37:12.413Z,56.67
2023-02-06T02:42:21.675Z,56.83
2023-02-06T02:47:31.404Z,56.89
2023-02-06T02:52:35.553Z,56.86
2023-02-06T02:57:38.556Z,56.98
2023-02-06T03:02:42.981Z,56.83
2023-02-06T03:07:58.062Z,57.14
2023-02-06T03:13:07.434Z,57.28
2023-02-06T03:18:13.652Z,57.08
2023-02-06T03:23:23.311Z,57.03
2023-02-06T03:28:32.242Z,57.13
2023-02-06T03:33:41.120Z,56.99
2023-02-06T03:38:46.808Z,56.97
2023-02-06T03:43:52.123Z,56.83
2023-02-06T03:48:59.665Z,56.80
2023-02-06T03:54:06.532Z,57.13
2023-02-06T03:59:09.327Z,57.06
2023-02-06T04:04:12.109Z,57.16
2023-02-06T04:09:16.220Z,57.32
2023-02-06T04:14:19.047Z,57.35
2023-02-06T04:19:21.791Z,57.45
2023-02-06T04:24:26.476Z,57.72
2023-02-06T04:29:29.404Z,57.65
2023-02-06T04:34:33.212Z,57.49
2023-02-06T04:39:37.299Z,57.94
2023-02-06T04:44:40.136Z,57.59
2023-02-06T04:49:42.868Z,57.63
2023-02-06T04:54:47.005Z,57.61
2023-02-06T04:59:49.792Z,57.66
2023-02-06T05:04:52.647Z,57.92
2023-02-06T05:09:56.796Z,58.12
2023-02-06T05:14:59.603Z,58.43
2023-02-06T05:20:02.403Z,58.44
2023-02-06T05:25:07.054Z,58.62
2023-02-06T05:30:11.134Z,58.83
2023-02-06T05:35:13.887Z,58.89
2023-02-06T05:40:18.383Z,59.08
2023-02-06T05:45:21.214Z,58.85
2023-02-06T05:50:24.071Z,59.07
2023-02-06T05:55:30.530Z,59.22
2023-02-06T06:00:33.389Z,59.04
2023-02-06T06:05:36.447Z,59.22
2023-02-06T06:10:40.843Z,59.24
2023-02-06T06:15:43.763Z,59.32
2023-02-06T06:20:47.383Z,59.44
2023-02-06T06:25:51.591Z,59.51
2023-02-06T06:31:01.712Z,59.52
2023-02-06T06:36:05.186Z,59.48
2023-02-06T06:41:09.292Z,59.57
2023-02-06T06:46:12.236Z,59.81
2023-02-06T06:51:14.963Z,59.64
2023-02-06T06:56:19.061Z,59.82
2023-02-06T07:01:22.018Z,59.66
2023-02-06T07:06:24.775Z,59.71
2023-02-06T07:11:28.894Z,59.83
2023-02-06T07:16:32.017Z,59.86
2023-02-06T07:21:35.698Z,59.60
2023-02-06T07:26:41.457Z,59.33
2023-02-06T07:31:44.232Z,59.29
2023-02-06T07:36:47.201Z,58.89
2023-02-06T07:41:51.556Z,58.85
2023-02-06T07:46:58.628Z,58.70
2023-02-06T07:52:01.407Z,58.73
2023-02-06T07:57:05.629Z,58.83
2023-02-06T08:02:10.666Z,59.03
2023-02-06T08:07:15.098Z,59.14
2023-02-06T08:12:19.264Z,59.13
2023-02-06T08:17:22.037Z,59.25
2023-02-06T08:22:24.799Z,59.43
2023-02-06T08:27:29.077Z,59.49
2023-02-06T08:32:34.454Z,59.52
2023-02-06T08:37:37.226Z,59.56
2023-02-06T08:42:41.306Z,59.71
2023-02-06T08:47:44.068Z,59.64
2023-02-06T08:52:46.957Z,59.71
2023-02-06T08:57:51.096Z,59.83
2023-02-06T09:02:54.472Z,59.73
2023-02-06T09:07:57.673Z,59.90
2023-02-06T09:13:01.851Z,50.08
2023-02-06T09:18:04.812Z,52.03
2023-02-06T09:23:07.528Z,53.29
2023-02-06T09:28:11.813Z,54.07
2023-02-06T09:33:14.691Z,50.78
2023-02-06T09:38:17.579Z,50.55
2023-02-06T09:43:22.437Z,50.42
2023-02-06T09:48:28.405Z,51.01
2023-02-06T09:53:40.138Z,51.55
2023-02-06T09:58:52.420Z,52.00
2023-02-06T10:04:10.113Z,52.43
2023-02-06T10:09:20.211Z,53.28
2023-02-06T10:14:33.305Z,53.90
2023-02-06T10:19:43.684Z,54.17
2023-02-06T10:24:54.586Z,54.80
2023-02-06T10:29:58.794Z,55.17
2023-02-06T10:35:14.582Z,55.24
2023-02-06T10:40:32.938Z,55.42
2023-02-06T10:45:44.641Z,55.65
2023-02-06T10:50:51.884Z,55.67
2023-02-06T10:55:58.696Z,55.71
2023-02-06T11:01:14.014Z,55.97
2023-02-06T11:06:29.483Z,56.55
2023-02-06T11:11:37.349Z,56.89
2023-02-06T11:16:42.011Z,57.33
2023-02-06T11:21:55.287Z,57.72
2023-02-06T11:27:00.217Z,57.93
2023-02-06T11:32:06.831Z,58.20
2023-02-06T11:37:32.500Z,58.53
2023-02-06T11:42:37.898Z,58.58
2023-02-06T11:47:42.058Z,58.70
2023-02-06T11:52:47.220Z,58.95
2023-02-06T11:58:05.056Z,59.16
2023-02-06T12:03:28.774Z,59.13
2023-02-06T12:08:41.538Z,59.38
2023-02-06T12:13:47.532Z,59.13
2023-02-06T12:18:55.211Z,59.15
2023-02-06T12:24:02.152Z,58.83
2023-02-06T12:29:14.645Z,58.72
2023-02-06T12:34:22.934Z,58.60
2023-02-06T12:39:32.306Z,58.43
2023-02-06T12:44:41.510Z,58.55
2023-02-06T12:49:55.720Z,58.56
2023-02-06T12:55:07.724Z,58.53
2023-02-06T13:00:38.889Z,51.15
2023-02-06T13:05:47.729Z,52.22
2023-02-06T13:11:00.293Z,50.39
2023-02-06T13:16:04.095Z,52.08
2023-02-06T13:21:19.638Z,51.84
2023-02-06T13:27:04.510Z,49.93
2023-02-06T13:32:46.916Z,49.75
2023-02-06T13:37:52.552Z,49.57
2023-02-06T13:42:58.310Z,50.36
2023-02-06T13:48:38.067Z,50.67
2023-02-06T13:54:05.950Z,51.08
2023-02-06T13:59:17.335Z,51.41
2023-02-06T14:04:25.117Z,51.65
2023-02-06T14:09:44.180Z,52.08
2023-02-06T14:15:00.580Z,52.35
2023-02-06T14:20:15.614Z,52.54
2023-02-06T14:25:39.590Z,52.92
2023-02-06T14:30:52.126Z,53.23
2023-02-06T14:36:10.960Z,53.84
2023-02-06T14:41:17.541Z,54.69
2023-02-06T14:46:21.275Z,55.13
2023-02-06T14:51:27.992Z,55.45
2023-02-06T14:56:34.188Z,55.74
2023-02-06T15:01:37.117Z,55.97
2023-02-06T15:06:42.219Z,56.16
2023-02-06T15:11:52.353Z,56.47
2023-02-06T15:16:59.231Z,56.21
2023-02-06T15:22:04.466Z,56.61
2023-02-06T15:27:19.362Z,57.04
2023-02-06T15:32:31.232Z,57.40
2023-02-06T15:37:36.000Z,57.60
2023-02-06T15:42:40.684Z,57.79
2023-02-06T15:47:46.064Z,57.62
2023-02-06T15:52:49.248Z,57.90
2023-02-06T15:57:55.450Z,58.02
2023-02-06T16:03:03.093Z,58.03
2023-02-06T16:08:11.410Z,58.13
2023-02-06T16:13:20.650Z,58.31
2023-02-06T16:18:31.101Z,58.32
2023-02-06T16:23:45.415Z,58.44
2023-02-06T16:28:55.587Z,58.68
2023-02-06T16:34:03.236Z,58.86
2023-02-06T16:39:06.193Z,58.98
2023-02-06T16:44:14.974Z,59.19
2023-02-06T16:49:20.010Z,59.03
2023-02-06T16:54:28.660Z,59.05
2023-02-06T16:59:32.799Z,58.75
2023-02-06T17:04:35.641Z,58.70
2023-02-06T17:09:38.512Z,58.45
2023-02-06T17:14:43.262Z,58.22
2023-02-06T17:19:46.535Z,58.44
2023-02-06T17:24:49.591Z,58.00
2023-02-06T17:29:54.336Z,58.03
2023-02-06T17:34:58.198Z,57.71
2023-02-06T17:40:01.044Z,57.78
2023-02-06T17:45:05.719Z,57.77
2023-02-06T17:50:10.726Z,57.85
2023-02-06T17:55:13.903Z,57.46
2023-02-06T18:00:20.324Z,57.36
2023-02-06T18:05:24.025Z,57.35
2023-02-06T18:10:27.692Z,57.37
2023-02-06T18:15:32.017Z,57.52
2023-02-06T18:20:36.476Z,57.46
2023-02-06T18:25:40.452Z,57.45
2023-02-06T18:30:46.124Z,57.14
2023-02-06T18:35:50.701Z,57.23
2023-02-06T18:40:53.939Z,57.18
2023-02-06T18:45:58.260Z,57.30
2023-02-06T18:51:01.183Z,57.07
2023-02-06T18:56:04.586Z,57.01
2023-02-06T19:01:14.309Z,56.92
2023-02-06T19:06:18.868Z,57.01
2023-02-06T19:11:21.896Z,56.30
2023-02-06T19:16:26.453Z,55.90
2023-02-06T19:21:29.378Z,55.37
2023-02-06T19:26:33.126Z,55.16
2023-02-06T19:31:40.412Z,54.85
2023-02-06T19:36:43.537Z,54.43
2023-02-06T19:41:46.371Z,54.11
2023-02-06T19:46:50.466Z,53.84
2023-02-06T19:51:53.644Z,53.75
2023-02-06T19:56:56.534Z,53.59
2023-02-06T20:02:02.830Z,53.20
2023-02-06T20:07:05.665Z,53.04
2023-02-06T20:12:09.821Z,52.89
2023-02-06T20:17:14.002Z,52.65
2023-02-06T20:22:16.871Z,52.63
2023-02-06T20:27:19.747Z,52.26
2023-02-06T20:32:24.297Z,52.48
2023-02-06T20:37:27.522Z,52.26
2023-02-06T20:42:32.011Z,51.97
2023-02-06T20:47:36.135Z,51.69
2023-02-06T20:52:38.858Z,51.80
2023-02-06T20:57:41.592Z,51.57
2023-02-06T21:02:45.842Z,51.75
2023-02-06T21:07:48.738Z,51.36
2023-02-06T21:12:51.542Z,51.34
2023-02-06T21:17:55.736Z,51.35
2023-02-06T21:22:58.718Z,51.45
2023-02-06T21:28:01.765Z,52.13
2023-02-06T21:33:05.979Z,52.27
2023-02-06T21:38:09.018Z,52.71
2023-02-06T21:43:12.458Z,52.96
2023-02-06T21:48:16.661Z,53.21
2023-02-06T21:53:19.759Z,53.43
2023-02-06T21:58:22.512Z,53.69
2023-02-06T22:03:26.857Z,53.71
2023-02-06T22:08:29.760Z,53.91
2023-02-06T22:13:32.493Z,54.03
2023-02-06T22:18:37.377Z,54.29
2023-02-06T22:23:41.570Z,54.26
2023-02-06T22:28:45.175Z,54.36
2023-02-06T22:33:49.730Z,54.42
2023-02-06T22:38:55.159Z,54.60
2023-02-06T22:43:58.496Z,54.49
2023-02-06T22:49:02.921Z,54.46
2023-02-06T22:54:09.251Z,54.55
2023-02-06T22:59:16.819Z,54.64
2023-02-06T23:04:23.177Z,54.81
2023-02-06T23:09:28.717Z,54.74
2023-02-06T23:14:33.024Z,54.73
2023-02-06T23:19:37.196Z,54.75
2023-02-06T23:24:40.212Z,54.99
2023-02-06T23:29:43.063Z,55.11
2023-02-06T23:34:47.520Z,55.04
2023-02-06T23:39:50.250Z,55.13
2023-02-06T23:44:53.147Z,55.13
2023-02-06T23:49:57.254Z,55.39
2023-02-06T23:55:00.040Z,55.59
